CST,Max TemperatureF,Mean TemperatureF,Min TemperatureF,Max Dew PointF,MeanDew PointF,Min DewpointF,Max Humidity, Mean Humidity, Min Humidity, Max Sea Level PressureIn, Mean Sea Level PressureIn, Min Sea Level PressureIn, Max VisibilityMiles, Mean VisibilityMiles, Min VisibilityMiles, Max Wind SpeedMPH, Mean Wind SpeedMPH, Max Gust SpeedMPH,PrecipitationIn, CloudCover, Events, WindDirDegrees
2014-2-1,26,20,14,19,15,7,92,77,63,30.30,30.05,29.88,10,10,5,20,7,29,0.00,5,,4
2014-2-2,27,14,0,12,5,-4,84,70,48,30.37,30.29,30.22,10,10,10,12,4,,0.00,0,,225
2014-2-3,30,18,7,16,10,3,84,65,44,30.24,30.18,30.12,10,10,10,12,5,,0.00,5,,161
2014-2-4,26,16,5,21,14,0,92,82,66,30.39,30.19,30.12,10,4,0,25,12,33,0.00,8,Snow,49
2014-2-5,9,4,-4,0,-5,-12,78,66,51,30.65,30.58,30.40,10,8,0,23,14,29,0.00,2,Snow,348
2014-2-6,8,0,-9,-2,-9,-16,73,64,49,30.63,30.53,30.37,10,10,10,7,4,,0.00,6,,283
2014-2-7,12,7,2,8,2,-5,83,74,67,30.36,30.23,30.10,10,9,5,13,6,16,0.00,8,Snow,181
2014-2-8,28,20,12,21,16,9,92,81,65,30.20,30.06,29.98,10,7,2,14,8,18,0.00,7,Snow,242
2014-2-9,20,15,10,17,8,3,89,78,63,30.41,30.31,30.20,10,8,2,14,9,21,0.00,7,Snow,14
2014-2-10,13,11,9,6,3,1,77,69,61,30.48,30.43,30.39,10,10,10,8,3,,0.00,8,,75
2014-2-11,22,17,12,12,7,4,73,69,63,30.42,30.26,30.06,10,10,10,23,8,28,0.00,5,,180
2014-2-12,32,24,16,24,20,12,88,80,70,30.12,30.02,29.86,10,10,7,23,11,34,0.00,4,,258
2014-2-13,55,40,26,32,28,22,85,68,39,29.85,29.76,29.59,10,10,7,14,9,17,0.00,1,Rain,247
2014-2-14,40,32,23,32,24,19,89,76,63,30.07,29.91,29.58,10,10,7,21,9,26,0.00,1,,342
2014-2-15,58,42,25,33,25,21,85,64,27,30.10,29.93,29.82,10,10,10,21,8,32,0.00,4,,239
2014-2-16,42,33,24,32,28,22,93,82,67,30.11,29.98,29.77,10,9,5,18,6,24,0.00,1,,137
2014-2-17,71,50,30,68,25,14,94,55,18,30.02,29.91,29.75,15,10,7,21,8,31,0.00,1,,271
2014-2-18,70,52,34,27,22,14,63,37,12,30.00,29.79,29.69,10,10,10,26,13,36,0.00,0,,264
2014-2-19,57,40,23,30,23,15,88,57,21,30.00,29.81,29.53,10,10,10,16,4,22,0.00,1,,158
2014-2-20,45,36,25,32,26,16,95,71,34,29.86,29.66,29.49,10,9,1,28,9,37,0.02,4,Rain-Snow-Thunderstorm,327
2014-2-21,54,38,23,23,19,12,84,51,21,29.88,29.83,29.78,10,10,10,24,7,29,0.00,1,,264
2014-2-22,45,38,28,27,24,20,86,58,40,30.17,29.98,29.87,10,10,2,16,9,22,0.00,3,Snow,17
2014-2-23,29,26,22,25,16,10,90,65,48,30.36,30.29,30.15,10,8,2,16,9,21,0.00,8,Snow,41
2014-2-24,35,30,24,20,18,15,82,68,44,30.34,30.25,30.11,10,10,10,14,6,18,0.00,6,,94
2014-2-25,26,18,10,20,7,1,84,68,48,30.50,30.40,30.30,10,9,1,21,14,28,0.00,7,Snow,1
2014-2-26,32,16,0,19,8,-4,83,68,50,30.48,30.19,29.98,10,10,10,21,7,29,0.00,0,,261
2014-2-27,30,20,10,14,7,3,83,56,33,30.12,29.98,29.78,10,10,10,15,8,21,0.00,1,,86
2014-2-28,48,34,19,24,15,5,77,55,36,30.14,29.83,29.69,10,10,10,21,10,31,0.00,3,,61